sensor_id;sensor_type;location;lat;lon;timestamp;P1;durP1;ratioP1;P2;durP2;ratioP2
46597;SDS011;32318;48.858;8.252;2022-12-18T00:04:43;174.77;;;32.30;;
46597;SDS011;32318;48.858;8.252;2022-12-18T00:12:44;108.95;;;30.42;;
46597;SDS011;32318;48.858;8.252;2022-12-18T00:20:44;127.47;;;31.70;;
46597;SDS011;32318;48.858;8.252;2022-12-18T00:28:45;138.43;;;32.60;;
46597;SDS011;32318;48.858;8.252;2022-12-18T00:36:47;106.57;;;30.73;;
46597;SDS011;32318;48.858;8.252;2022-12-18T00:44:47;132.35;;;32.90;;
46597;SDS011;32318;48.858;8.252;2022-12-18T00:52:48;122.13;;;29.42;;
46597;SDS011;32318;48.858;8.252;2022-12-18T01:00:48;114.38;;;31.02;;
46597;SDS011;32318;48.858;8.252;2022-12-18T01:08:48;142.32;;;31.75;;
46597;SDS011;32318;48.858;8.252;2022-12-18T01:16:49;105.90;;;29.30;;
46597;SDS011;32318;48.858;8.252;2022-12-18T01:24:49;116.65;;;29.15;;
46597;SDS011;32318;48.858;8.252;2022-12-18T01:32:49;139.15;;;29.65;;
46597;SDS011;32318;48.858;8.252;2022-12-18T01:40:56;120.72;;;31.10;;
46597;SDS011;32318;48.858;8.252;2022-12-18T01:48:57;125.82;;;30.00;;
46597;SDS011;32318;48.858;8.252;2022-12-18T01:57:00;108.03;;;29.38;;
46597;SDS011;32318;48.858;8.252;2022-12-18T02:05:01;158.75;;;30.13;;
46597;SDS011;32318;48.858;8.252;2022-12-18T02:13:07;105.68;;;28.63;;
46597;SDS011;32318;48.858;8.252;2022-12-18T02:21:26;101.13;;;27.52;;
46597;SDS011;32318;48.858;8.252;2022-12-18T02:29:40;108.28;;;29.75;;
46597;SDS011;32318;48.858;8.252;2022-12-18T02:37:48;118.53;;;31.55;;
46597;SDS011;32318;48.858;8.252;2022-12-18T02:45:59;97.72;;;30.88;;
46597;SDS011;32318;48.858;8.252;2022-12-18T02:54:14;117.30;;;33.13;;
46597;SDS011;32318;48.858;8.252;2022-12-18T03:10:40;120.90;;;32.80;;
46597;SDS011;32318;48.858;8.252;2022-12-18T03:18:46;105.97;;;31.08;;
46597;SDS011;32318;48.858;8.252;2022-12-18T03:26:52;100.55;;;31.70;;
46597;SDS011;32318;48.858;8.252;2022-12-18T03:34:58;102.63;;;32.20;;
46597;SDS011;32318;48.858;8.252;2022-12-18T03:43:27;113.45;;;34.08;;
46597;SDS011;32318;48.858;8.252;2022-12-18T03:51:48;110.80;;;32.92;;
46597;SDS011;32318;48.858;8.252;2022-12-18T03:59:55;103.68;;;31.33;;
46597;SDS011;32318;48.858;8.252;2022-12-18T04:16:01;113.18;;;32.80;;
46597;SDS011;32318;48.858;8.252;2022-12-18T04:24:01;114.95;;;30.70;;
46597;SDS011;32318;48.858;8.252;2022-12-18T04:32:02;107.85;;;30.90;;
46597;SDS011;32318;48.858;8.252;2022-12-18T04:40:02;111.00;;;32.70;;
46597;SDS011;32318;48.858;8.252;2022-12-18T04:48:03;105.47;;;30.38;;
46597;SDS011;32318;48.858;8.252;2022-12-18T04:56:06;94.60;;;28.63;;
46597;SDS011;32318;48.858;8.252;2022-12-18T05:04:07;122.95;;;33.28;;
46597;SDS011;32318;48.858;8.252;2022-12-18T05:12:08;109.18;;;30.35;;
46597;SDS011;32318;48.858;8.252;2022-12-18T05:20:08;120.65;;;30.20;;
46597;SDS011;32318;48.858;8.252;2022-12-18T05:28:09;118.88;;;31.08;;
46597;SDS011;32318;48.858;8.252;2022-12-18T05:36:09;120.68;;;32.20;;
46597;SDS011;32318;48.858;8.252;2022-12-18T05:44:10;144.57;;;32.95;;
46597;SDS011;32318;48.858;8.252;2022-12-18T05:52:10;124.57;;;31.58;;
46597;SDS011;32318;48.858;8.252;2022-12-18T06:00:11;109.68;;;29.50;;
46597;SDS011;32318;48.858;8.252;2022-12-18T06:08:12;117.80;;;29.73;;
46597;SDS011;32318;48.858;8.252;2022-12-18T06:16:13;118.95;;;27.90;;
46597;SDS011;32318;48.858;8.252;2022-12-18T06:24:13;109.35;;;28.45;;
46597;SDS011;32318;48.858;8.252;2022-12-18T06:32:14;105.65;;;27.75;;
46597;SDS011;32318;48.858;8.252;2022-12-18T06:40:14;99.00;;;28.90;;
46597;SDS011;32318;48.858;8.252;2022-12-18T06:48:15;112.07;;;27.45;;
46597;SDS011;32318;48.858;8.252;2022-12-18T06:56:15;92.60;;;26.90;;
46597;SDS011;32318;48.858;8.252;2022-12-18T07:04:15;109.75;;;26.73;;
46597;SDS011;32318;48.858;8.252;2022-12-18T07:12:16;99.30;;;26.20;;
46597;SDS011;32318;48.858;8.252;2022-12-18T07:20:16;105.22;;;27.65;;
46597;SDS011;32318;48.858;8.252;2022-12-18T07:28:17;121.05;;;29.75;;
46597;SDS011;32318;48.858;8.252;2022-12-18T07:36:17;109.45;;;29.10;;
46597;SDS011;32318;48.858;8.252;2022-12-18T07:44:18;101.60;;;28.70;;
46597;SDS011;32318;48.858;8.252;2022-12-18T07:52:18;109.57;;;27.95;;
46597;SDS011;32318;48.858;8.252;2022-12-18T08:00:18;106.60;;;29.00;;
46597;SDS011;32318;48.858;8.252;2022-12-18T08:08:19;126.10;;;32.90;;
46597;SDS011;32318;48.858;8.252;2022-12-18T08:16:20;124.32;;;30.83;;
46597;SDS011;32318;48.858;8.252;2022-12-18T08:24:21;108.03;;;28.13;;
46597;SDS011;32318;48.858;8.252;2022-12-18T08:32:21;130.93;;;31.10;;
46597;SDS011;32318;48.858;8.252;2022-12-18T08:40:21;100.25;;;26.13;;
46597;SDS011;32318;48.858;8.252;2022-12-18T08:48:22;115.10;;;30.52;;
46597;SDS011;32318;48.858;8.252;2022-12-18T08:56:22;107.78;;;27.10;;
46597;SDS011;32318;48.858;8.252;2022-12-18T09:04:22;112.40;;;26.77;;
46597;SDS011;32318;48.858;8.252;2022-12-18T09:12:23;114.38;;;27.25;;
46597;SDS011;32318;48.858;8.252;2022-12-18T09:20:23;108.97;;;27.73;;
46597;SDS011;32318;48.858;8.252;2022-12-18T09:28:24;98.43;;;25.33;;
46597;SDS011;32318;48.858;8.252;2022-12-18T09:36:24;108.03;;;25.17;;
46597;SDS011;32318;48.858;8.252;2022-12-18T09:44:35;93.68;;;24.45;;
46597;SDS011;32318;48.858;8.252;2022-12-18T09:52:40;108.32;;;27.55;;
46597;SDS011;32318;48.858;8.252;2022-12-18T10:00:45;96.82;;;28.27;;
46597;SDS011;32318;48.858;8.252;2022-12-18T10:08:46;108.20;;;27.15;;
46597;SDS011;32318;48.858;8.252;2022-12-18T10:33:23;94.78;;;24.73;;
46597;SDS011;32318;48.858;8.252;2022-12-18T10:41:25;109.10;;;26.65;;
46597;SDS011;32318;48.858;8.252;2022-12-18T10:49:27;112.57;;;27.67;;
46597;SDS011;32318;48.858;8.252;2022-12-18T11:05:36;89.90;;;25.70;;
46597;SDS011;32318;48.858;8.252;2022-12-18T11:13:37;116.85;;;29.30;;
46597;SDS011;32318;48.858;8.252;2022-12-18T11:21:39;106.90;;;27.15;;
46597;SDS011;32318;48.858;8.252;2022-12-18T11:29:41;112.47;;;27.90;;
46597;SDS011;32318;48.858;8.252;2022-12-18T11:37:41;90.20;;;24.08;;
46597;SDS011;32318;48.858;8.252;2022-12-18T11:45:58;92.18;;;22.13;;
46597;SDS011;32318;48.858;8.252;2022-12-18T11:54:09;94.88;;;22.40;;
46597;SDS011;32318;48.858;8.252;2022-12-18T12:35:47;84.00;;;24.83;;
46597;SDS011;32318;48.858;8.252;2022-12-18T12:44:01;108.25;;;25.65;;
46597;SDS011;32318;48.858;8.252;2022-12-18T12:52:07;93.30;;;24.92;;
46597;SDS011;32318;48.858;8.252;2022-12-18T13:00:17;92.45;;;23.48;;
46597;SDS011;32318;48.858;8.252;2022-12-18T13:08:31;109.22;;;22.83;;
46597;SDS011;32318;48.858;8.252;2022-12-18T13:16:50;111.30;;;27.90;;
46597;SDS011;32318;48.858;8.252;2022-12-18T13:24:51;117.88;;;29.13;;
46597;SDS011;32318;48.858;8.252;2022-12-18T13:33:39;93.50;;;27.63;;
46597;SDS011;32318;48.858;8.252;2022-12-18T13:49:21;109.25;;;29.00;;
46597;SDS011;32318;48.858;8.252;2022-12-18T13:57:29;113.73;;;28.47;;
46597;SDS011;32318;48.858;8.252;2022-12-18T14:05:32;119.00;;;30.25;;
46597;SDS011;32318;48.858;8.252;2022-12-18T14:13:36;110.88;;;27.60;;
46597;SDS011;32318;48.858;8.252;2022-12-18T14:21:39;101.70;;;29.85;;
46597;SDS011;32318;48.858;8.252;2022-12-18T14:29:40;104.10;;;29.38;;
46597;SDS011;32318;48.858;8.252;2022-12-18T14:37:42;107.63;;;31.15;;
46597;SDS011;32318;48.858;8.252;2022-12-18T14:45:43;114.13;;;32.67;;
46597;SDS011;32318;48.858;8.252;2022-12-18T14:53:46;118.55;;;33.47;;
46597;SDS011;32318;48.858;8.252;2022-12-18T15:10:02;115.10;;;31.98;;
46597;SDS011;32318;48.858;8.252;2022-12-18T15:18:12;126.40;;;36.03;;
46597;SDS011;32318;48.858;8.252;2022-12-18T15:26:17;125.15;;;34.67;;
46597;SDS011;32318;48.858;8.252;2022-12-18T15:34:20;118.40;;;34.28;;
46597;SDS011;32318;48.858;8.252;2022-12-18T15:42:22;144.77;;;38.97;;
46597;SDS011;32318;48.858;8.252;2022-12-18T15:50:41;145.88;;;43.90;;
46597;SDS011;32318;48.858;8.252;2022-12-18T15:58:41;139.85;;;39.05;;
46597;SDS011;32318;48.858;8.252;2022-12-18T16:06:41;115.43;;;35.83;;
46597;SDS011;32318;48.858;8.252;2022-12-18T16:14:42;122.40;;;34.22;;
46597;SDS011;32318;48.858;8.252;2022-12-18T16:22:43;126.90;;;34.90;;
46597;SDS011;32318;48.858;8.252;2022-12-18T16:30:45;178.88;;;42.60;;
46597;SDS011;32318;48.858;8.252;2022-12-18T16:38:46;156.25;;;39.22;;
46597;SDS011;32318;48.858;8.252;2022-12-18T16:46:46;134.32;;;39.25;;
46597;SDS011;32318;48.858;8.252;2022-12-18T16:54:46;128.63;;;37.33;;
46597;SDS011;32318;48.858;8.252;2022-12-18T17:02:47;141.18;;;38.72;;
46597;SDS011;32318;48.858;8.252;2022-12-18T17:10:50;138.77;;;39.45;;
46597;SDS011;32318;48.858;8.252;2022-12-18T17:18:53;162.90;;;40.13;;
46597;SDS011;32318;48.858;8.252;2022-12-18T17:26:54;145.57;;;40.28;;
46597;SDS011;32318;48.858;8.252;2022-12-18T17:34:54;137.25;;;36.47;;
46597;SDS011;32318;48.858;8.252;2022-12-18T17:42:54;122.20;;;34.83;;
46597;SDS011;32318;48.858;8.252;2022-12-18T17:50:59;136.10;;;37.72;;
46597;SDS011;32318;48.858;8.252;2022-12-18T17:59:03;131.82;;;34.78;;
46597;SDS011;32318;48.858;8.252;2022-12-18T18:07:04;127.47;;;37.03;;
46597;SDS011;32318;48.858;8.252;2022-12-18T18:15:10;143.63;;;38.25;;
46597;SDS011;32318;48.858;8.252;2022-12-18T18:23:11;130.32;;;35.00;;
46597;SDS011;32318;48.858;8.252;2022-12-18T18:31:12;139.02;;;39.75;;
46597;SDS011;32318;48.858;8.252;2022-12-18T18:39:12;129.55;;;37.15;;
46597;SDS011;32318;48.858;8.252;2022-12-18T18:47:13;140.13;;;37.90;;
46597;SDS011;32318;48.858;8.252;2022-12-18T18:55:14;149.40;;;42.60;;
46597;SDS011;32318;48.858;8.252;2022-12-18T19:03:14;142.65;;;37.35;;
46597;SDS011;32318;48.858;8.252;2022-12-18T19:11:15;141.68;;;37.65;;
46597;SDS011;32318;48.858;8.252;2022-12-18T19:19:35;150.82;;;39.47;;
46597;SDS011;32318;48.858;8.252;2022-12-18T19:27:35;133.95;;;37.53;;
46597;SDS011;32318;48.858;8.252;2022-12-18T19:35:37;143.73;;;37.70;;
46597;SDS011;32318;48.858;8.252;2022-12-18T19:43:38;159.40;;;40.33;;
46597;SDS011;32318;48.858;8.252;2022-12-18T19:51:38;120.95;;;33.88;;
46597;SDS011;32318;48.858;8.252;2022-12-18T19:59:42;141.80;;;39.03;;
46597;SDS011;32318;48.858;8.252;2022-12-18T20:07:42;146.00;;;38.25;;
46597;SDS011;32318;48.858;8.252;2022-12-18T20:15:42;152.27;;;38.75;;
46597;SDS011;32318;48.858;8.252;2022-12-18T20:23:43;145.27;;;39.38;;
46597;SDS011;32318;48.858;8.252;2022-12-18T20:31:43;142.20;;;39.30;;
46597;SDS011;32318;48.858;8.252;2022-12-18T20:39:43;131.07;;;37.22;;
46597;SDS011;32318;48.858;8.252;2022-12-18T20:47:44;148.73;;;39.70;;
46597;SDS011;32318;48.858;8.252;2022-12-18T20:55:44;136.85;;;36.97;;
46597;SDS011;32318;48.858;8.252;2022-12-18T21:03:44;145.73;;;38.60;;
46597;SDS011;32318;48.858;8.252;2022-12-18T21:11:45;153.73;;;41.72;;
46597;SDS011;32318;48.858;8.252;2022-12-18T21:20:04;170.82;;;45.60;;
46597;SDS011;32318;48.858;8.252;2022-12-18T21:28:05;163.60;;;42.30;;
46597;SDS011;32318;48.858;8.252;2022-12-18T21:36:05;146.63;;;39.00;;
46597;SDS011;32318;48.858;8.252;2022-12-18T21:44:06;134.85;;;40.42;;
46597;SDS011;32318;48.858;8.252;2022-12-18T21:52:09;165.98;;;41.28;;
46597;SDS011;32318;48.858;8.252;2022-12-18T22:00:10;148.35;;;40.35;;
46597;SDS011;32318;48.858;8.252;2022-12-18T22:08:11;132.88;;;39.53;;
46597;SDS011;32318;48.858;8.252;2022-12-18T22:16:12;175.00;;;40.72;;
46597;SDS011;32318;48.858;8.252;2022-12-18T22:24:25;134.48;;;38.08;;
46597;SDS011;32318;48.858;8.252;2022-12-18T22:32:28;146.90;;;44.30;;
46597;SDS011;32318;48.858;8.252;2022-12-18T22:40:29;151.13;;;40.67;;
46597;SDS011;32318;48.858;8.252;2022-12-18T22:48:30;146.27;;;41.05;;
46597;SDS011;32318;48.858;8.252;2022-12-18T22:56:30;137.88;;;40.78;;
46597;SDS011;32318;48.858;8.252;2022-12-18T23:04:30;141.52;;;41.40;;
46597;SDS011;32318;48.858;8.252;2022-12-18T23:12:31;155.07;;;42.78;;
46597;SDS011;32318;48.858;8.252;2022-12-18T23:20:31;144.93;;;41.55;;
46597;SDS011;32318;48.858;8.252;2022-12-18T23:28:34;137.60;;;41.25;;
46597;SDS011;32318;48.858;8.252;2022-12-18T23:36:35;144.82;;;39.28;;
46597;SDS011;32318;48.858;8.252;2022-12-18T23:44:35;147.43;;;43.13;;
46597;SDS011;32318;48.858;8.252;2022-12-18T23:52:36;137.98;;;39.42;;
